Godman Army Air Field
KFTK : now visible

Airfield :











YOU CAN JOIN US ON...

 
LOGIN :

Register | Disclaimer

   EN    FR    IT 

 









Legend :    VFR   Marginal VFR   IFR   Intensive IFR   Very Intensive IFR
Visi :
Ceiling :
>= 8 km
>= 3000ft
5 to 8 km
1000 to 3000 ft
1500m to 5 km
500 to 1000 ft
800 to 1500m
200 to 500 ft
< 800m
< 200 ft
Symbols :   Thunderstorms  Fog  Heavy snow  Heavy precipitations  Wind > 20 kt







- Airport Elevation : 756 ft


KFTK - Godman Army Air Field

CURRENT METAR :
  • 181856Z AUTO 00000KT 10SM CLR 31/23 A3000 RMK AO2 SLP154 T03110226

EXPIRED METARs :
  • 181837Z AUTO 25005KT 10SM CLR 31/23 A3000 RMK AO2 SLP154
  • 181756Z AUTO 25003KT 10SM FEW032 30/23 A3002 RMK AO2 SLP161 T03040225 10304 20232 58000
  • 181656Z AUTO 22005KT 10SM CLR 30/22 A3003 RMK AO2 SLP164 T02950222

TAF TAF KFTK
Valid from the 18 at 17:00 until the 19 at 23:00 UTC


181700Z 1817/1923 27012KT 9999 FEW060 SCT100 QNH2989INS
TEMPO 1818/1901 30015G20KT 8000 -SHRA VCTS BKN060CB
BECMG 1900/1901 26006KT 9999 SCT030 QNH2992INS
BECMG 1905/1906 25006KT 8000 BR SCT015 QNH2993INS
BECMG 1913/1914 24009KT 9999 NSW FEW025 SCT040 QNH2991INS TX33/1822Z TN22/1908Z
KZID FIR / North America



MET'MAP, your aeronautical weather chart ! - Copyright ORBIFLY December 2007 - Disclaimer

ORBIFLY MET'MAP TEAM :

Programming & Development : Alexandra Zaïnal
Concept & Development : Baudouin d'Aumeries
Co-Development & Prog : Marc-Olivier Méhu
Technical & hardware support : Manuel Goepfert

Contact : metmap@orbifly.com




SOURCES & CREDITS :

   NOAA       Earth
Advisory